Pagrindinis puslapis
METAR-TAF:

METAR-TAF

Oro uostai :

Jim Hogg County Airport

Hebbronville, Teksasas, Jungtinės Amerikos Valstijos

platuma: 27-20N, ilguma: 098-44W, Aukštis: 202 m

Dabartinis oras

Ataskaita buvo paskelbta 17 minutes, ne 10:35 UTC
Vėjas 4 kt iš Šiaurės/Šiaurės Vakarų
Temperatūra 19°C
Drėgmė 94%
Slėgis 1017 hPa
Matomumas: 16.1 km
Išsisklaidę debesys ne aukštis 4800 ft
Su prošvaistėmis ne aukštis 9000 ft
Apsiniaukę ne aukštis 11000 ft
lietus

METAR: KHBV 291035Z AUTO 33004KT 10SM -RA SCT048 BKN090 OVC110 19/18 A3002 RMK AO2 LTG DSNT ALQS P0003 T01940176

Laikas: 05:52 (10:52 UTC)


TAF: trūkstamas

Orai ataskaitas ir orų prognozės (METAR, TAF).

turimą stotys yra geltonos ir raudonos taškus žemėlapyje.

Perkelti pele per norėdami pamatyti stoties vardą.

Tada spustelėkite, norėdami matyti oro stebėjimo ir prognozės.

Norėdami pakeisti žemėlapį: spustelėkite ant žalios mygtukų su juodo kryžiaus žemyn,; žalią mygtuką su brūkšneliu, jei norite nutolinti; arba žalių rodyklių gretimoms žemėlapius.


METAR-TAF: